createdAt,value
2018-12-16T00:03:34.449Z,74.49
2018-12-16T00:06:39.033Z,73.65
2018-12-16T00:09:44.127Z,73.50
2018-12-16T00:12:48.715Z,72.98
2018-12-16T00:15:53.429Z,73.70
2018-12-16T00:18:58.046Z,73.75
2018-12-16T00:22:02.678Z,73.58
2018-12-16T00:25:08.534Z,73.83
2018-12-16T00:28:13.185Z,73.73
2018-12-16T00:31:17.897Z,73.86
2018-12-16T00:34:22.719Z,74.21
2018-12-16T00:37:27.894Z,74.35
2018-12-16T00:40:32.527Z,73.98
2018-12-16T00:43:37.116Z,74.94
2018-12-16T00:46:41.722Z,74.83
2018-12-16T00:49:46.411Z,74.06
2018-12-16T00:52:51.037Z,75.79
2018-12-16T00:55:55.625Z,74.93
2018-12-16T00:59:00.124Z,74.91
2018-12-16T01:02:07.156Z,74.83
2018-12-16T01:05:12.297Z,73.92
2018-12-16T01:08:16.923Z,73.72
2018-12-16T01:11:21.461Z,72.87
2018-12-16T01:14:26.183Z,72.10
2018-12-16T01:17:30.767Z,71.45
2018-12-16T01:20:35.438Z,72.59
2018-12-16T01:23:40.003Z,72.17
2018-12-16T01:26:44.586Z,72.63
2018-12-16T01:29:49.254Z,72.97
2018-12-16T01:32:53.849Z,72.01
2018-12-16T01:35:58.825Z,72.58
2018-12-16T01:39:03.735Z,72.64
2018-12-16T01:42:08.413Z,72.63
2018-12-16T01:45:12.992Z,73.40
2018-12-16T01:48:17.565Z,73.26
2018-12-16T01:51:22.142Z,73.58
2018-12-16T01:54:26.686Z,73.40
2018-12-16T01:57:31.242Z,73.08
2018-12-16T02:00:35.855Z,73.27
2018-12-16T02:03:40.538Z,74.51
2018-12-16T02:06:45.317Z,73.61
2018-12-16T02:09:50.029Z,73.51
2018-12-16T02:12:54.628Z,73.43
2018-12-16T02:15:59.605Z,73.52
2018-12-16T02:19:04.822Z,72.72
2018-12-16T02:22:09.480Z,71.72
2018-12-16T02:25:14.141Z,72.04
2018-12-16T02:28:18.852Z,72.34
2018-12-16T02:31:23.336Z,72.68
2018-12-16T02:34:27.932Z,72.99
2018-12-16T02:37:32.891Z,73.69
2018-12-16T02:40:37.474Z,72.78
2018-12-16T02:43:42.294Z,71.84
2018-12-16T02:46:46.902Z,73.39
2018-12-16T02:49:51.567Z,73.19
2018-12-16T02:53:04.294Z,72.25
2018-12-16T02:56:03.488Z,71.70
2018-12-16T02:59:10.876Z,70.70
2018-12-16T03:02:15.499Z,70.84
2018-12-16T03:05:20.200Z,71.18
2018-12-16T03:08:24.746Z,70.83
2018-12-16T03:11:29.330Z,70.49
2018-12-16T03:14:34.861Z,69.94
2018-12-16T03:17:39.564Z,70.30
2018-12-16T03:20:44.244Z,71.26
2018-12-16T03:23:48.914Z,71.27
2018-12-16T03:26:54.608Z,70.79
2018-12-16T03:29:59.217Z,71.16
2018-12-16T03:33:04.979Z,72.25
2018-12-16T03:36:09.861Z,71.18
2018-12-16T03:39:14.454Z,72.47
2018-12-16T03:42:19.065Z,71.91
2018-12-16T03:45:23.592Z,72.58
2018-12-16T03:48:28.136Z,71.17
2018-12-16T03:51:32.645Z,72.35
2018-12-16T03:54:37.333Z,71.31
2018-12-16T03:57:41.959Z,71.44
2018-12-16T04:00:46.563Z,71.28
2018-12-16T04:03:51.257Z,71.24
2018-12-16T04:06:56.373Z,71.98
2018-12-16T04:10:00.962Z,71.30
2018-12-16T04:13:05.525Z,70.67
2018-12-16T04:16:10.140Z,71.86
2018-12-16T04:19:14.767Z,70.85
2018-12-16T04:22:19.454Z,71.18
2018-12-16T04:25:24.098Z,71.86
2018-12-16T04:28:28.948Z,71.03
2018-12-16T04:31:33.597Z,71.36
2018-12-16T04:34:38.099Z,70.69
2018-12-16T04:37:42.749Z,70.70
2018-12-16T04:40:47.380Z,71.20
2018-12-16T04:43:51.874Z,70.61
2018-12-16T04:46:56.485Z,69.96
2018-12-16T04:50:01.184Z,70.38
2018-12-16T04:53:05.731Z,69.90
2018-12-16T04:56:10.303Z,69.88
2018-12-16T04:59:14.943Z,70.45
2018-12-16T05:02:19.562Z,70.35
2018-12-16T05:05:24.138Z,69.95
2018-12-16T05:08:28.866Z,70.59
2018-12-16T05:14:47.801Z,70.44
2018-12-16T05:17:52.462Z,70.63
2018-12-16T05:20:57.153Z,70.07
2018-12-16T05:24:01.773Z,70.46
2018-12-16T05:27:06.355Z,69.89
2018-12-16T05:33:25.650Z,70.08
2018-12-16T05:36:30.284Z,70.15
2018-12-16T05:39:34.993Z,69.89
2018-12-16T05:42:39.620Z,69.55
2018-12-16T05:45:44.250Z,69.80
2018-12-16T05:48:48.910Z,70.39
2018-12-16T05:51:53.462Z,69.61
2018-12-16T05:54:58.103Z,70.20
2018-12-16T05:58:02.704Z,69.25
2018-12-16T06:01:07.584Z,69.19
2018-12-16T06:04:12.253Z,69.71
2018-12-16T06:07:17.016Z,69.85
2018-12-16T06:10:21.638Z,69.04
2018-12-16T06:13:26.298Z,68.05
2018-12-16T06:16:30.997Z,68.37
2018-12-16T06:19:35.528Z,68.94
2018-12-16T06:22:40.233Z,69.40
2018-12-16T06:25:44.853Z,69.71
2018-12-16T06:28:49.513Z,69.57
2018-12-16T06:31:55.300Z,70.78
2018-12-16T06:35:00.297Z,68.70
2018-12-16T06:38:05.784Z,69.48
2018-12-16T06:41:10.400Z,69.17
2018-12-16T06:44:15.088Z,68.95
2018-12-16T06:47:19.715Z,68.45
2018-12-16T06:50:24.253Z,69.19
2018-12-16T06:53:28.925Z,69.51
2018-12-16T06:56:33.515Z,69.01
2018-12-16T06:59:38.114Z,67.84
2018-12-16T07:02:42.912Z,68.67
2018-12-16T07:05:48.236Z,68.26
2018-12-16T07:08:52.939Z,67.79
2018-12-16T07:11:57.580Z,67.74
2018-12-16T07:15:02.395Z,68.61
2018-12-16T07:18:07.237Z,68.24
2018-12-16T07:21:11.704Z,68.07
2018-12-16T07:24:16.313Z,68.01
2018-12-16T07:27:21.010Z,68.21
2018-12-16T07:30:27.597Z,68.24
2018-12-16T07:33:32.311Z,68.56
2018-12-16T07:36:37.654Z,68.83
2018-12-16T07:39:43.919Z,67.94
2018-12-16T07:42:48.716Z,68.23
2018-12-16T07:45:53.279Z,68.47
2018-12-16T07:48:58.122Z,68.81
2018-12-16T07:52:02.969Z,69.32
2018-12-16T07:55:09.165Z,69.63
2018-12-16T07:58:13.908Z,68.32
2018-12-16T08:04:33.195Z,69.73
2018-12-16T08:07:37.904Z,70.38
2018-12-16T08:10:42.575Z,70.56
2018-12-16T08:13:47.982Z,71.06
2018-12-16T08:16:52.592Z,71.94
2018-12-16T08:19:57.338Z,72.90
2018-12-16T08:23:01.981Z,74.58
2018-12-16T08:26:07.133Z,75.32
2018-12-16T08:29:11.687Z,76.85
2018-12-16T08:32:16.398Z,77.06
2018-12-16T08:35:20.986Z,77.84
2018-12-16T08:38:25.722Z,78.73
2018-12-16T08:41:30.456Z,78.76
2018-12-16T08:44:35.007Z,79.23
2018-12-16T08:47:39.603Z,79.52
2018-12-16T08:50:44.302Z,79.93
2018-12-16T08:53:48.941Z,80.01
2018-12-16T08:56:53.624Z,80.15
2018-12-16T08:59:58.268Z,80.71
2018-12-16T09:03:03.364Z,81.13
2018-12-16T09:06:08.001Z,81.55
2018-12-16T09:09:12.918Z,81.52
2018-12-16T09:12:17.445Z,82.45
2018-12-16T09:15:22.105Z,83.06
2018-12-16T09:18:26.630Z,83.58
2018-12-16T09:21:31.316Z,84.00
2018-12-16T09:24:37.386Z,82.87
2018-12-16T09:27:42.293Z,84.00
2018-12-16T09:30:57.702Z,83.79
2018-12-16T09:33:57.315Z,84.38
2018-12-16T09:37:02.168Z,84.28
2018-12-16T09:40:07.890Z,83.29
2018-12-16T09:43:12.698Z,83.06
2018-12-16T09:46:17.414Z,82.09
2018-12-16T09:49:22.133Z,80.44
2018-12-16T09:52:26.798Z,80.51
2018-12-16T09:55:31.513Z,82.23
2018-12-16T09:58:36.108Z,81.30
2018-12-16T10:01:40.796Z,81.74
2018-12-16T10:04:45.445Z,81.87
2018-12-16T10:11:04.123Z,81.48
2018-12-16T10:14:08.817Z,81.62
2018-12-16T10:17:13.522Z,81.80
2018-12-16T10:20:18.286Z,81.04
2018-12-16T10:23:22.942Z,82.39
2018-12-16T10:26:27.705Z,82.62
2018-12-16T10:29:32.370Z,82.17
2018-12-16T10:32:36.931Z,82.25
2018-12-16T10:35:41.777Z,81.53
2018-12-16T10:38:46.451Z,80.36
2018-12-16T10:41:51.255Z,80.73
2018-12-16T10:44:55.881Z,80.85
2018-12-16T10:48:00.604Z,78.56
2018-12-16T10:51:05.331Z,79.40
2018-12-16T10:54:10.017Z,80.51
2018-12-16T10:57:14.636Z,79.96
2018-12-16T11:00:24.369Z,79.39
2018-12-16T11:03:28.911Z,78.53
2018-12-16T11:06:33.534Z,79.55
2018-12-16T11:09:38.182Z,79.69
2018-12-16T11:12:43.263Z,78.38
2018-12-16T11:15:48.649Z,77.74
2018-12-16T11:18:53.159Z,78.96
2018-12-16T11:21:57.713Z,79.19
2018-12-16T11:25:05.566Z,79.55
2018-12-16T11:28:08.785Z,79.57
2018-12-16T11:34:28.091Z,79.53
2018-12-16T11:37:32.728Z,78.89
2018-12-16T11:40:37.289Z,78.09
2018-12-16T11:43:41.860Z,77.78
2018-12-16T11:46:46.467Z,77.37
2018-12-16T11:49:50.981Z,77.56
2018-12-16T11:52:55.482Z,77.24
2018-12-16T11:56:00.577Z,77.25
2018-12-16T11:59:05.268Z,78.32
2018-12-16T12:02:09.920Z,78.95
2018-12-16T12:05:14.445Z,80.06
2018-12-16T12:08:18.971Z,80.46
2018-12-16T12:11:23.599Z,79.89
2018-12-16T12:14:28.158Z,79.00
2018-12-16T12:17:32.738Z,80.26
2018-12-16T12:20:37.289Z,79.90
2018-12-16T12:23:42.180Z,79.91
2018-12-16T12:26:46.937Z,79.18
2018-12-16T12:29:51.482Z,78.37
2018-12-16T12:32:56.113Z,79.00
2018-12-16T12:36:00.933Z,79.98
2018-12-16T12:39:07.650Z,79.50
2018-12-16T12:42:12.125Z,78.92
2018-12-16T12:45:16.799Z,78.66
2018-12-16T12:48:21.715Z,81.42
2018-12-16T12:51:26.279Z,81.79
2018-12-16T12:54:30.881Z,81.12
2018-12-16T12:57:35.553Z,79.73
2018-12-16T13:00:40.242Z,80.06
2018-12-16T13:03:44.934Z,79.84
2018-12-16T13:06:49.540Z,80.59
2018-12-16T13:09:54.259Z,80.64
2018-12-16T13:12:59.074Z,79.70
2018-12-16T13:16:03.766Z,80.29
2018-12-16T13:19:08.350Z,79.85
2018-12-16T13:22:12.948Z,80.52
2018-12-16T13:25:35.723Z,81.24
2018-12-16T13:28:40.464Z,81.44
2018-12-16T13:31:45.170Z,81.47
2018-12-16T13:34:49.843Z,82.16
2018-12-16T13:37:54.462Z,82.35
2018-12-16T13:40:59.169Z,82.38
2018-12-16T13:44:03.974Z,82.70
2018-12-16T13:47:08.689Z,82.29
2018-12-16T13:50:13.410Z,81.50
2018-12-16T13:53:17.959Z,81.37
2018-12-16T13:56:22.642Z,81.62
2018-12-16T13:59:27.185Z,82.82
2018-12-16T14:02:31.915Z,81.69
2018-12-16T14:05:36.658Z,81.90
2018-12-16T14:08:41.355Z,83.45
2018-12-16T14:11:46.084Z,83.29
2018-12-16T14:14:50.738Z,82.99
2018-12-16T14:17:55.322Z,81.34
2018-12-16T14:20:59.951Z,82.83
2018-12-16T14:24:04.677Z,83.49
2018-12-16T14:27:09.368Z,83.56
2018-12-16T14:30:14.282Z,84.05
2018-12-16T14:33:19.015Z,83.62
2018-12-16T14:36:23.614Z,84.13
2018-12-16T14:39:31.010Z,83.85
2018-12-16T14:42:35.577Z,84.81
2018-12-16T14:45:40.276Z,85.40
2018-12-16T14:48:45.044Z,85.17
2018-12-16T14:51:49.588Z,86.18
2018-12-16T14:54:54.566Z,86.51
2018-12-16T14:57:59.209Z,86.10
2018-12-16T15:01:03.894Z,86.33
2018-12-16T15:04:08.518Z,86.14
2018-12-16T15:07:13.274Z,86.09
2018-12-16T15:10:17.931Z,86.61
2018-12-16T15:13:22.882Z,86.88
2018-12-16T15:16:27.576Z,86.55
2018-12-16T15:19:32.444Z,86.93
2018-12-16T15:22:37.246Z,87.82
2018-12-16T15:25:41.895Z,88.33
2018-12-16T15:28:46.573Z,88.43
2018-12-16T15:31:51.188Z,88.25
2018-12-16T15:34:55.913Z,88.71
2018-12-16T15:38:00.731Z,88.61
2018-12-16T15:41:05.690Z,88.32
2018-12-16T15:44:10.461Z,88.68
2018-12-16T15:47:15.218Z,88.89
2018-12-16T15:50:19.790Z,89.70
2018-12-16T15:53:24.500Z,89.73
2018-12-16T15:56:29.790Z,90.00
2018-12-16T15:59:34.386Z,89.43
2018-12-16T16:02:39.165Z,89.00
2018-12-16T16:05:44.166Z,89.12
2018-12-16T16:08:49.717Z,89.21
2018-12-16T16:11:54.499Z,88.91
2018-12-16T16:14:59.202Z,89.15
2018-12-16T16:18:03.945Z,89.36
2018-12-16T16:21:08.446Z,88.79
2018-12-16T16:24:13.175Z,89.20
2018-12-16T16:27:17.934Z,89.33
2018-12-16T16:30:22.573Z,89.31
2018-12-16T16:33:27.385Z,89.15
2018-12-16T16:36:32.257Z,89.79
2018-12-16T16:39:36.763Z,89.91
2018-12-16T16:42:41.381Z,89.90
2018-12-16T16:45:46.263Z,89.66
2018-12-16T16:48:51.245Z,89.21
2018-12-16T16:51:56.353Z,89.69
2018-12-16T16:55:01.117Z,89.91
2018-12-16T16:58:05.773Z,89.77
2018-12-16T17:01:10.407Z,90.03
2018-12-16T17:04:15.023Z,89.96
2018-12-16T17:07:19.712Z,89.15
2018-12-16T17:13:44.116Z,89.01
2018-12-16T17:16:48.869Z,89.52
2018-12-16T17:19:53.694Z,89.27
2018-12-16T17:22:58.351Z,88.64
2018-12-16T17:26:03.255Z,89.12
2018-12-16T17:29:07.963Z,88.81
2018-12-16T17:32:12.579Z,89.14
2018-12-16T17:35:17.239Z,88.84
2018-12-16T17:38:21.945Z,88.41
2018-12-16T17:41:26.688Z,88.39
2018-12-16T17:44:31.489Z,88.23
2018-12-16T17:47:36.391Z,88.67
2018-12-16T17:50:41.245Z,88.75
2018-12-16T17:53:45.899Z,89.17
2018-12-16T17:56:50.663Z,89.45
2018-12-16T17:59:55.602Z,89.32
2018-12-16T18:03:00.454Z,89.10
2018-12-16T18:06:05.089Z,89.54
2018-12-16T18:09:10.920Z,89.12
2018-12-16T18:12:15.659Z,89.59
2018-12-16T18:15:20.628Z,89.88
2018-12-16T18:18:25.402Z,90.30
2018-12-16T18:21:30.241Z,90.08
2018-12-16T18:24:34.790Z,90.01
2018-12-16T18:27:39.527Z,89.88
2018-12-16T18:30:44.245Z,89.93
2018-12-16T18:33:48.876Z,90.33
2018-12-16T18:36:53.451Z,89.83
2018-12-16T18:39:58.335Z,90.48
2018-12-16T18:43:03.060Z,90.83
2018-12-16T18:46:08.076Z,90.55
2018-12-16T18:49:12.883Z,90.53
2018-12-16T18:52:17.584Z,90.78
2018-12-16T18:55:22.289Z,89.81
2018-12-16T18:58:26.863Z,88.27
2018-12-16T19:01:31.534Z,88.93
2018-12-16T19:04:36.263Z,89.27
2018-12-16T19:07:41.158Z,89.03
2018-12-16T19:10:45.811Z,89.84
2018-12-16T19:13:50.730Z,89.76
2018-12-16T19:16:55.485Z,90.41
2018-12-16T19:20:00.052Z,89.74
2018-12-16T19:23:04.713Z,89.90
2018-12-16T19:26:09.313Z,89.73
2018-12-16T19:29:13.898Z,90.28
2018-12-16T19:32:18.563Z,90.02
2018-12-16T19:35:23.299Z,89.63
2018-12-16T19:38:27.939Z,89.87
2018-12-16T19:41:32.484Z,89.81
2018-12-16T19:44:37.008Z,89.63
2018-12-16T19:47:41.629Z,89.82
2018-12-16T19:50:46.493Z,90.22
2018-12-16T19:53:51.092Z,90.96
2018-12-16T19:56:55.705Z,90.56
2018-12-16T20:00:00.387Z,89.59
2018-12-16T20:03:05.083Z,89.39
2018-12-16T20:06:15.023Z,89.47
2018-12-16T20:09:19.732Z,89.89
2018-12-16T20:12:24.313Z,90.15
2018-12-16T20:15:29.033Z,90.29
2018-12-16T20:18:33.689Z,90.16
2018-12-16T20:21:38.724Z,90.27
2018-12-16T20:24:43.310Z,90.37
2018-12-16T20:27:47.881Z,90.21
2018-12-16T20:30:53.150Z,89.75
2018-12-16T20:33:57.837Z,89.75
2018-12-16T20:37:02.499Z,89.58
2018-12-16T20:40:08.340Z,89.25
2018-12-16T20:43:12.985Z,89.45
2018-12-16T20:46:17.642Z,89.26
2018-12-16T20:49:22.313Z,89.38
2018-12-16T20:52:26.891Z,89.99
2018-12-16T20:55:31.510Z,90.14
2018-12-16T20:58:36.181Z,90.18
2018-12-16T21:01:40.829Z,90.07
2018-12-16T21:04:45.443Z,89.90
2018-12-16T21:07:50.009Z,89.59
2018-12-16T21:10:54.572Z,89.37
2018-12-16T21:14:04.497Z,89.26
2018-12-16T21:17:14.488Z,89.99
2018-12-16T21:20:19.163Z,90.00
2018-12-16T21:23:24.227Z,89.94
2018-12-16T21:26:28.894Z,89.74
2018-12-16T21:29:33.542Z,89.00
2018-12-16T21:32:38.077Z,89.13
2018-12-16T21:35:42.727Z,88.80
2018-12-16T21:38:47.208Z,89.50
2018-12-16T21:41:51.825Z,89.60
2018-12-16T21:44:56.448Z,90.49
2018-12-16T21:48:01.014Z,90.08
2018-12-16T21:51:05.797Z,89.79
2018-12-16T21:54:10.352Z,89.59
2018-12-16T21:57:14.969Z,89.64
2018-12-16T22:00:19.561Z,89.63
2018-12-16T22:03:24.170Z,89.01
2018-12-16T22:06:28.797Z,89.81
2018-12-16T22:09:33.314Z,89.89
2018-12-16T22:12:37.993Z,89.78
2018-12-16T22:15:42.579Z,89.46
2018-12-16T22:18:47.272Z,89.02
2018-12-16T22:21:51.873Z,89.80
2018-12-16T22:24:56.476Z,89.46
2018-12-16T22:28:01.114Z,89.53
2018-12-16T22:31:05.670Z,89.01
2018-12-16T22:34:10.317Z,89.86
2018-12-16T22:37:15.110Z,90.10
2018-12-16T22:40:19.883Z,90.30
2018-12-16T22:43:24.440Z,90.70
2018-12-16T22:46:29.434Z,91.11
2018-12-16T22:49:34.199Z,90.91
2018-12-16T22:52:38.862Z,90.44
2018-12-16T22:55:43.479Z,90.52
2018-12-16T22:58:54.201Z,90.50
2018-12-16T23:01:54.706Z,89.75
2018-12-16T23:04:59.294Z,90.26
2018-12-16T23:08:03.976Z,89.88
2018-12-16T23:11:08.520Z,90.49
2018-12-16T23:14:13.196Z,91.06
2018-12-16T23:17:17.791Z,90.68
2018-12-16T23:20:24.468Z,91.03
2018-12-16T23:23:29.085Z,91.18
2018-12-16T23:26:33.665Z,90.26
2018-12-16T23:29:38.163Z,90.58
2018-12-16T23:32:42.669Z,90.67
2018-12-16T23:35:47.260Z,91.02
2018-12-16T23:38:51.802Z,90.99
2018-12-16T23:41:56.337Z,90.22
2018-12-16T23:45:00.840Z,90.58
2018-12-16T23:48:05.397Z,90.61
2018-12-16T23:51:10.103Z,90.66
2018-12-16T23:54:14.616Z,90.74
2018-12-16T23:57:19.088Z,91.13
